createdAt,value
2017-09-03T00:03:52.720Z,1020.1
2017-09-03T00:08:57.113Z,1020.1
2017-09-03T00:14:02.515Z,1020
2017-09-03T00:19:08.253Z,1020
2017-09-03T00:24:12.990Z,1020
2017-09-03T00:29:18.393Z,1020
2017-09-03T00:34:23.456Z,1019.9
2017-09-03T00:39:29.194Z,1020
2017-09-03T00:44:34.277Z,1019.9
2017-09-03T00:49:39.000Z,1019.9
2017-09-03T00:54:44.738Z,1019.8
2017-09-03T00:59:50.139Z,1019.7
2017-09-03T01:04:55.880Z,1019.7
2017-09-03T01:10:01.279Z,1019.6
2017-09-03T01:15:06.343Z,1019.6
2017-09-03T01:20:11.757Z,1019.6
2017-09-03T01:25:16.493Z,1019.6
2017-09-03T01:30:21.910Z,1019.5
2017-09-03T01:35:26.980Z,1019.5
2017-09-03T01:40:32.379Z,1019.5
2017-09-03T01:45:37.443Z,1019.4
2017-09-03T01:50:42.510Z,1019.4
2017-09-03T01:55:47.583Z,1019.4
2017-09-03T02:00:52.320Z,1019.4
2017-09-03T02:05:57.385Z,1019.4
2017-09-03T02:11:02.787Z,1019.4
2017-09-03T02:16:07.851Z,1019.4
2017-09-03T02:21:12.584Z,1019.4
2017-09-03T02:26:17.989Z,1019.4
2017-09-03T02:31:22.730Z,1019.3
2017-09-03T02:36:28.121Z,1019.3
2017-09-03T02:41:33.522Z,1019.3
2017-09-03T02:46:39.258Z,1019.4
2017-09-03T02:51:44.326Z,1019.3
2017-09-03T02:56:49.390Z,1019.3
2017-09-03T03:01:55.121Z,1019.3
2017-09-03T03:07:00.520Z,1019.3
2017-09-03T03:12:06.592Z,1019.3
2017-09-03T03:17:10.988Z,1019.3
2017-09-03T03:22:16.387Z,1019.2
2017-09-03T03:27:21.455Z,1019.2
2017-09-03T03:32:27.524Z,1019.2
2017-09-03T03:37:32.592Z,1019.2
2017-09-03T03:42:38.328Z,1019.2
2017-09-03T03:47:43.391Z,1019.2
2017-09-03T03:52:49.466Z,1019.1
2017-09-03T03:57:54.868Z,1019.1
2017-09-03T04:03:00.650Z,1019
2017-09-03T04:08:06.056Z,1019
2017-09-03T04:13:11.115Z,1019
2017-09-03T04:18:15.510Z,1018.9
2017-09-03T04:23:21.248Z,1019
2017-09-03T04:28:26.652Z,1019
2017-09-03T04:33:31.388Z,1018.9
2017-09-03T04:38:37.144Z,1018.9
2017-09-03T04:43:42.881Z,1019
2017-09-03T04:48:47.945Z,1019
2017-09-03T04:53:53.362Z,1019
2017-09-03T04:58:58.768Z,1019
2017-09-03T05:04:04.540Z,1019
2017-09-03T05:09:10.290Z,1019
2017-09-03T05:14:15.691Z,1018.9
2017-09-03T05:19:20.430Z,1019
2017-09-03T05:24:25.499Z,1019
2017-09-03T05:29:30.566Z,1019
2017-09-03T05:34:35.637Z,1019
2017-09-03T05:39:40.375Z,1019
2017-09-03T05:44:46.106Z,1019
2017-09-03T05:49:51.504Z,1019
2017-09-03T05:54:56.571Z,1019
2017-09-03T06:00:02.048Z,1019
2017-09-03T06:05:08.122Z,1019
2017-09-03T06:10:13.902Z,1018.9
2017-09-03T06:15:18.979Z,1018.9
2017-09-03T06:20:24.410Z,1018.9
2017-09-03T06:25:29.474Z,1018.8
2017-09-03T06:30:34.211Z,1018.9
2017-09-03T06:35:39.284Z,1018.9
2017-09-03T06:40:44.382Z,1018.9
2017-09-03T06:45:50.122Z,1018.9
2017-09-03T06:50:54.524Z,1018.9
2017-09-03T06:55:59.260Z,1018.9
2017-09-03T07:01:04.671Z,1018.9
2017-09-03T07:06:09.739Z,1018.9
2017-09-03T07:11:14.812Z,1018.8
2017-09-03T07:16:20.247Z,1018.8
2017-09-03T07:21:26.014Z,1018.8
2017-09-03T07:26:31.292Z,1018.8
2017-09-03T07:31:36.700Z,1018.9
2017-09-03T07:36:41.457Z,1018.8
2017-09-03T07:41:46.779Z,1018.8
2017-09-03T07:46:51.558Z,1018.8
2017-09-03T07:51:56.302Z,1018.7
2017-09-03T07:57:01.714Z,1018.7
2017-09-03T08:02:07.331Z,1018.7
2017-09-03T08:07:12.411Z,1018.7
2017-09-03T08:12:17.826Z,1018.7
2017-09-03T08:17:22.906Z,1018.8
2017-09-03T08:22:28.329Z,1018.8
2017-09-03T08:27:33.418Z,1018.8
2017-09-03T08:32:38.514Z,1018.8
2017-09-03T08:37:43.943Z,1018.8
2017-09-03T08:42:48.367Z,1018.8
2017-09-03T08:47:53.800Z,1018.7
2017-09-03T08:52:58.560Z,1018.7
2017-09-03T08:58:04.359Z,1018.7
2017-09-03T09:03:10.124Z,1018.7
2017-09-03T09:08:15.911Z,1018.5
2017-09-03T09:13:20.985Z,1018.5
2017-09-03T09:18:26.087Z,1018.5
2017-09-03T09:23:30.519Z,1018.4
2017-09-03T09:28:35.950Z,1018.4
2017-09-03T09:33:41.041Z,1018.4
2017-09-03T09:38:46.138Z,1018.4
2017-09-03T09:43:51.580Z,1018.5
2017-09-03T09:48:57.343Z,1018.5
2017-09-03T09:54:01.778Z,1018.4
2017-09-03T09:59:07.220Z,1018.3
2017-09-03T10:04:12.645Z,1018.3
2017-09-03T10:09:18.075Z,1018.3
2017-09-03T10:14:23.172Z,1018.4
2017-09-03T10:19:28.266Z,1018.3
2017-09-03T10:24:33.027Z,1018.3
2017-09-03T10:29:38.784Z,1018.2
2017-09-03T10:34:43.540Z,1018.1
2017-09-03T10:39:47.958Z,1018.1
2017-09-03T10:44:52.366Z,1018.1
2017-09-03T10:49:58.450Z,1018.1
2017-09-03T10:55:03.531Z,1018
2017-09-03T11:00:08.958Z,1018
2017-09-03T11:05:15.053Z,1018
2017-09-03T11:10:20.129Z,1018
2017-09-03T11:15:26.216Z,1018
2017-09-03T11:20:31.626Z,1017.9
2017-09-03T11:25:37.705Z,1017.9
2017-09-03T11:30:42.777Z,1017.8
2017-09-03T11:35:48.533Z,1017.8
2017-09-03T11:40:53.972Z,1017.7
2017-09-03T11:46:00.246Z,1017.7
2017-09-03T11:51:05.317Z,1017.6
2017-09-03T11:56:10.729Z,1017.6
2017-09-03T12:01:16.136Z,1017.6
2017-09-03T12:06:21.547Z,1017.5
2017-09-03T12:11:26.614Z,1017.5
2017-09-03T12:16:32.025Z,1017.4
2017-09-03T12:21:37.091Z,1017.4
2017-09-03T12:26:42.162Z,1017.3
2017-09-03T12:31:47.568Z,1017.2
2017-09-03T12:36:53.311Z,1017.2
2017-09-03T12:41:58.379Z,1017.1
2017-09-03T12:47:02.786Z,1017
2017-09-03T12:52:08.191Z,1017
2017-09-03T12:57:13.264Z,1017
2017-09-03T13:02:18.000Z,1016.9
2017-09-03T13:07:23.412Z,1016.9
2017-09-03T13:12:29.489Z,1016.9
2017-09-03T13:17:35.227Z,1016.9
2017-09-03T13:22:40.299Z,1016.8
2017-09-03T13:27:46.042Z,1016.8
2017-09-03T13:32:50.777Z,1016.8
2017-09-03T13:37:55.845Z,1016.8
2017-09-03T13:43:00.576Z,1016.7
2017-09-03T13:48:05.645Z,1016.7
2017-09-03T13:53:10.716Z,1016.6
2017-09-03T13:58:15.448Z,1016.5
2017-09-03T14:03:21.190Z,1016.5
2017-09-03T14:08:26.642Z,1016.5
2017-09-03T14:13:31.037Z,1016.5
2017-09-03T14:18:36.101Z,1016.5
2017-09-03T14:23:40.497Z,1016.5
2017-09-03T14:28:45.568Z,1016.5
2017-09-03T14:33:50.973Z,1016.5
2017-09-03T14:38:55.365Z,1016.5
2017-09-03T14:44:00.766Z,1016.5
2017-09-03T14:49:06.176Z,1016.5
2017-09-03T14:54:11.919Z,1016.5
2017-09-03T14:59:16.993Z,1016.5
2017-09-03T15:04:22.064Z,1016.5
2017-09-03T15:09:27.532Z,1016.4
2017-09-03T15:14:32.601Z,1016.4
2017-09-03T15:19:38.003Z,1016.4
2017-09-03T15:24:43.741Z,1016.4
2017-09-03T15:29:49.480Z,1016.4
2017-09-03T15:34:54.211Z,1016.4
2017-09-03T15:39:59.615Z,1016.4
2017-09-03T15:45:05.361Z,1016.4
2017-09-03T15:50:10.095Z,1016.3
2017-09-03T15:55:15.226Z,1016.3
2017-09-03T16:00:20.626Z,1016.3
2017-09-03T16:05:25.358Z,1016.3
2017-09-03T16:10:30.431Z,1016.3
2017-09-03T16:15:36.176Z,1016.3
2017-09-03T16:20:41.580Z,1016.3
2017-09-03T16:25:46.988Z,1016.3
2017-09-03T16:30:51.387Z,1016.2
2017-09-03T16:35:56.126Z,1016.2
2017-09-03T16:41:01.192Z,1016.2
2017-09-03T16:46:06.269Z,1016.2
2017-09-03T16:51:12.008Z,1016.1
2017-09-03T16:56:17.415Z,1016.1
2017-09-03T17:01:22.821Z,1016.2
2017-09-03T17:06:28.564Z,1016.1
2017-09-03T17:11:34.302Z,1016.2
2017-09-03T17:16:38.699Z,1016.2
2017-09-03T17:21:44.440Z,1016.2
2017-09-03T17:26:49.508Z,1016.2
2017-09-03T17:31:54.906Z,1016.2
2017-09-03T17:37:00.313Z,1016.2
2017-09-03T17:42:05.054Z,1016.3
2017-09-03T17:47:11.129Z,1016.4
2017-09-03T17:52:15.861Z,1016.4
2017-09-03T17:57:20.602Z,1016.4
2017-09-03T18:02:25.672Z,1016.4
2017-09-03T18:07:30.410Z,1016.5
2017-09-03T18:12:35.813Z,1016.5
2017-09-03T18:17:41.553Z,1016.5
2017-09-03T18:22:46.957Z,1016.5
2017-09-03T18:27:52.359Z,1016.5
2017-09-03T18:32:57.760Z,1016.5
2017-09-03T18:38:03.203Z,1016.5
2017-09-03T18:43:07.270Z,1016.6
2017-09-03T18:48:12.338Z,1016.6
2017-09-03T18:53:17.403Z,1016.6
2017-09-03T18:58:22.471Z,1016.6
2017-09-03T19:03:27.872Z,1016.5
2017-09-03T19:08:32.606Z,1016.6
2017-09-03T19:13:38.028Z,1016.6
2017-09-03T19:18:43.437Z,1016.6
2017-09-03T19:23:48.170Z,1016.7
2017-09-03T19:28:53.577Z,1016.8
2017-09-03T19:33:58.986Z,1016.7
2017-09-03T19:39:04.080Z,1016.8
2017-09-03T19:44:09.457Z,1016.8
2017-09-03T19:49:14.190Z,1016.9
2017-09-03T19:54:19.590Z,1016.8
2017-09-03T19:59:24.324Z,1016.8
2017-09-03T20:04:29.722Z,1016.8
2017-09-03T20:09:35.134Z,1016.8
2017-09-03T20:14:40.533Z,1016.8
2017-09-03T20:19:46.271Z,1016.8
2017-09-03T20:24:51.001Z,1016.8
2017-09-03T20:29:56.407Z,1016.8
2017-09-03T20:35:02.148Z,1016.8
2017-09-03T20:40:07.558Z,1016.8
2017-09-03T20:45:12.292Z,1016.8
2017-09-03T20:50:16.684Z,1016.8
2017-09-03T20:55:21.753Z,1016.8
2017-09-03T21:00:27.823Z,1016.7
2017-09-03T21:05:33.225Z,1016.7
2017-09-03T21:10:38.293Z,1016.7
2017-09-03T21:15:43.028Z,1016.7
2017-09-03T21:20:48.765Z,1016.7
2017-09-03T21:25:53.825Z,1016.7
2017-09-03T21:30:58.892Z,1016.7
2017-09-03T21:36:03.966Z,1016.7
2017-09-03T21:41:09.713Z,1016.7
2017-09-03T21:46:15.471Z,1016.7
2017-09-03T21:51:20.511Z,1016.6
2017-09-03T21:56:25.910Z,1016.7
2017-09-03T22:01:31.337Z,1016.6
2017-09-03T22:06:36.046Z,1016.6
2017-09-03T22:11:41.445Z,1016.6
2017-09-03T22:16:46.851Z,1016.6
2017-09-03T22:21:51.916Z,1016.5
2017-09-03T22:26:57.654Z,1016.4
2017-09-03T22:32:02.389Z,1016.4
2017-09-03T22:37:07.455Z,1016.4
2017-09-03T22:42:12.186Z,1016.3
2017-09-03T22:47:17.919Z,1016.3
2017-09-03T22:52:22.999Z,1016.3
2017-09-03T22:57:27.727Z,1016.2
2017-09-03T23:02:33.127Z,1016.3
2017-09-03T23:07:38.199Z,1016.3
2017-09-03T23:12:42.930Z,1016.3
2017-09-03T23:17:47.326Z,1016.2
2017-09-03T23:22:52.052Z,1016.2
2017-09-03T23:27:56.783Z,1016.2
2017-09-03T23:33:01.517Z,1016.2
2017-09-03T23:38:06.248Z,1016.2
2017-09-03T23:43:11.650Z,1016.2
2017-09-03T23:48:17.052Z,1016.2
2017-09-03T23:53:22.121Z,1016.2
2017-09-03T23:58:27.185Z,1016.2
